Date,TemperatureHighF,TemperatureAvgF,TemperatureLowF,DewpointHighF,DewpointAvgF,DewpointLowF,HumidityHigh,HumidityAvg,HumidityLow,PressureMaxIn,PressureMinIn,WindSpeedMaxMPH,WindSpeedAvgMPH,GustSpeedMaxMPH,PrecipitationSumIn
2013-1-1,45,39,35,35,32,30,92,75,64,30.43,30.28,10,2,24,0.00
2013-1-2,48,40,36,32,29,26,71,64,52,30.29,30.15,8,2,20,0.00
2013-1-3,52,42,36,48,34,25,97,75,57,30.28,30.10,8,2,22,0.27
2013-1-4,54,48,43,49,46,42,97,93,80,30.35,30.17,3,0,9,0.25
2013-1-5,48,44,43,44,42,40,97,92,84,30.23,30.15,5,0,12,0.08
2013-1-6,51,45,40,48,43,40,98,93,81,30.26,30.12,2,0,7,0.10
2013-1-7,51,50,46,51,49,45,99,97,95,30.28,30.08,6,1,16,0.87
2013-1-8,52,51,48,51,49,48,97,95,91,30.26,30.04,6,1,20,0.28
2013-1-9,52,43,36,49,42,35,97,94,89,30.05,29.86,7,1,20,0.84
2013-1-10,40,37,36,38,36,35,97,96,93,30.20,30.05,3,0,12,0.73
2013-1-11,44,36,31,39,33,28,98,88,58,30.35,30.18,5,0,10,0.08
2013-1-12,43,34,30,33,30,27,94,83,62,30.44,30.33,2,0,10,0.01
2013-1-13,40,32,27,31,28,26,95,86,69,30.52,30.43,3,0,13,0.01
2013-1-14,43,34,28,37,31,26,96,86,72,30.59,30.52,1,0,7,0.00
2013-1-15,38,37,37,36,36,36,96,96,96,30.59,30.58,0,0,1,0.00
2013-1-16,39,37,35,36,35,30,96,92,76,30.59,30.45,2,0,10,0.00
2013-1-17,58,45,36,34,31,30,78,60,38,30.45,30.27,6,1,17,0.00
2013-1-18,61,47,35,40,34,30,88,63,43,30.29,30.24,5,0,12,0.00
2013-1-19,55,40,33,43,36,31,95,84,55,30.33,30.25,2,0,7,0.00
2013-1-20,56,42,34,35,32,29,93,71,45,30.34,30.22,6,0,14,0.00
2013-1-21,55,41,34,36,31,28,82,67,46,30.25,30.12,3,0,10,0.00
2013-1-22,55,43,35,36,32,28,77,65,47,30.14,29.96,5,0,14,0.00
2013-1-23,45,42,38,44,37,31,97,84,62,30.23,29.90,2,0,7,0.62
2013-1-24,50,43,34,47,41,33,97,93,84,30.24,30.12,2,0,15,0.15
2013-1-25,51,48,45,50,47,44,98,97,95,30.17,30.05,1,0,12,0.49
2013-1-26,48,44,39,46,43,38,97,95,83,30.16,30.02,7,0,17,0.51
2013-1-27,44,41,36,44,40,35,98,97,95,30.22,30.11,3,0,10,0.85
2013-1-28,46,44,43,45,43,42,96,96,93,30.34,30.17,9,2,18,0.36
2013-1-29,47,45,44,46,44,44,97,96,95,30.57,30.34,7,1,18,0.32
2013-1-30,49,47,45,48,46,44,98,97,94,30.57,30.51,5,0,13,0.42
2013-1-31,56,48,44,50,46,43,98,92,73,30.51,30.39,2,0,5,0.00
2013-2-1,56,48,39,46,43,38,98,85,64,30.39,30.25,6,1,16,0.01
2013-2-2,61,51,44,46,43,38,89,75,55,30.36,30.25,5,0,17,0.00
2013-2-3,50,48,46,46,45,44,95,90,85,30.37,30.26,0,0,3,0.00
2013-2-4,53,46,43,46,44,42,97,90,75,30.28,30.02,2,0,16,0.00
2013-2-5,51,48,45,49,45,42,96,91,82,30.11,29.97,6,0,17,0.45
2013-2-6,50,46,40,46,44,39,97,92,82,30.14,29.89,5,0,18,0.68
2013-2-7,46,41,36,42,39,35,97,94,80,30.19,29.99,1,0,6,0.09
2013-2-8,50,38,31,42,36,30,98,90,68,30.34,30.20,6,0,15,0.01
2013-2-9,48,42,35,45,40,34,97,95,88,30.36,30.32,3,0,5,0.01
2013-2-10,49,46,43,45,42,40,97,89,75,30.39,30.34,1,0,10,0.00
2013-2-11,50,45,42,46,43,39,97,91,73,30.45,30.37,2,0,7,0.07
2013-2-12,50,48,46,49,47,46,98,96,93,30.55,30.45,6,0,12,0.26
2013-2-13,51,48,45,49,46,44,100,96,86,30.56,30.50,1,0,7,0.18
2013-2-14,58,46,39,49,44,38,98,90,71,30.60,30.49,2,0,9,0.00
2013-2-15,66,50,41,49,45,40,97,84,53,30.49,30.23,3,0,14,0.01
2013-2-16,50,46,40,46,44,39,99,92,77,30.36,30.29,5,0,13,0.07
2013-2-17,47,41,37,42,38,35,98,90,66,30.36,30.13,3,0,7,0.05
2013-2-18,47,40,35,42,38,34,97,92,81,30.13,29.75,3,0,12,0.11
2013-2-19,48,42,35,44,39,33,97,90,73,30.07,29.69,2,0,10,0.17
2013-2-20,47,39,33,44,37,32,98,95,83,30.18,30.07,3,0,17,0.49
2013-2-21,45,43,39,45,42,38,98,96,92,30.28,30.18,2,0,12,0.46
2013-2-22,48,45,40,47,44,38,97,93,79,30.25,30.00,7,2,26,1.06
2013-2-23,48,42,38,42,38,36,96,88,64,30.50,30.18,7,1,20,0.21
2013-2-24,52,44,38,45,39,36,97,82,57,30.50,30.12,5,0,9,0.01
2013-2-25,49,43,36,46,40,35,96,88,66,30.45,30.10,12,2,24,0.53
2013-2-26,52,41,32,41,37,31,97,86,55,30.44,30.29,5,0,10,0.01
2013-2-27,50,46,42,49,45,40,97,95,84,30.33,30.24,1,0,7,0.25
2013-2-28,53,51,49,52,51,48,98,97,96,30.50,30.24,3,1,17,1.03
2013-3-1,57,52,46,54,50,45,98,94,85,30.52,30.37,1,0,9,0.07
2013-3-2,54,48,41,50,46,40,98,96,87,30.37,30.26,2,0,10,0.07
2013-3-3,51,41,33,41,37,32,98,87,60,30.38,30.25,3,0,14,0.00
2013-3-4,57,44,34,45,38,33,97,81,50,30.25,29.92,5,1,13,0.01
2013-3-5,45,43,39,44,42,37,97,96,92,29.92,29.65,2,0,7,0.59
2013-3-6,49,44,40,46,43,39,97,94,86,30.00,29.59,3,0,20,0.38
2013-3-7,54,43,33,44,38,33,98,86,62,30.08,30.00,5,0,10,0.01
2013-3-8,55,42,32,45,39,31,98,88,64,30.27,30.07,5,1,12,0.01
2013-3-9,52,42,37,44,40,36,97,92,75,30.55,30.26,2,0,6,0.00
2013-3-10,54,44,35,48,42,34,97,91,64,30.55,30.46,3,0,7,0.04
2013-3-11,55,50,47,51,49,46,98,94,86,30.47,30.28,3,0,7,0.01
2013-3-12,58,50,46,51,48,46,98,91,71,30.29,30.24,5,0,10,0.00
2013-3-13,61,50,46,52,47,45,98,88,68,30.29,30.16,7,0,9,0.00
2013-3-14,56,50,47,51,47,45,97,90,73,30.27,30.12,3,0,13,0.13
2013-3-15,56,52,47,53,50,46,98,95,87,30.28,30.26,3,0,9,0.05
2013-3-16,49,46,42,48,45,38,97,95,84,30.26,30.11,7,1,20,0.48
2013-3-17,50,43,37,42,38,36,96,85,62,30.37,30.25,6,1,12,0.06
2013-3-18,54,43,33,43,38,32,97,84,57,30.35,30.13,5,0,12,0.00
2013-3-19,52,48,45,51,43,37,97,82,68,30.13,29.69,7,1,22,0.57
2013-3-20,55,48,42,51,44,36,95,87,70,30.25,29.61,14,3,35,0.76
2013-3-21,48,42,39,41,38,36,96,85,67,30.40,30.25,9,1,17,0.25
2013-3-22,47,40,34,40,36,32,97,88,64,30.45,30.38,5,0,16,0.24
2013-3-23,52,41,32,38,34,30,97,80,45,30.45,30.31,5,0,12,0.01
2013-3-24,56,46,38,39,37,34,92,72,49,30.31,30.13,6,0,13,0.00
2013-3-25,57,47,38,43,40,37,94,78,53,30.13,29.99,5,0,7,0.00
2013-3-26,52,47,44,48,45,41,97,93,85,30.06,29.99,2,0,4,0.03
2013-3-27,58,50,45,51,48,44,96,91,75,30.03,29.95,5,0,12,0.02
2013-3-28,60,52,47,54,49,46,98,90,76,30.19,30.03,3,0,9,0.02
2013-3-29,69,55,47,54,50,46,97,84,59,30.24,30.16,2,0,9,0.01
2013-3-30,81,61,46,52,48,44,97,67,31,30.19,29.96,7,1,21,0.01
2013-3-31,64,55,48,54,50,47,96,85,65,30.08,30.01,6,1,18,0.00
2013-4-1,55,52,50,52,50,48,96,92,87,30.24,30.08,2,0,10,0.01
2013-4-2,58,52,48,52,49,46,97,91,77,30.27,30.21,3,0,8,0.02
2013-4-3,64,54,45,54,49,44,96,86,69,30.22,29.95,3,0,6,0.00
2013-4-4,57,53,51,55,52,50,97,95,88,29.94,29.74,6,1,20,0.55
2013-4-5,54,52,51,52,50,50,97,95,88,30.02,29.87,6,1,20,0.81
2013-4-6,55,51,47,51,49,46,97,91,82,30.07,29.72,5,1,23,0.55
2013-4-7,52,47,42,51,45,40,96,93,87,30.05,29.67,9,2,28,0.67
2013-4-8,53,46,41,46,42,39,96,88,70,30.36,30.05,9,1,13,0.01
2013-4-9,61,50,41,49,44,39,96,82,60,30.39,30.29,5,0,7,0.00
2013-4-10,55,52,44,51,46,42,96,82,75,30.41,30.23,5,0,15,0.01
2013-4-11,56,47,40,46,43,40,97,86,68,30.42,30.22,7,1,12,0.02
2013-4-12,53,44,36,47,41,35,97,90,71,30.22,29.96,8,1,20,0.16
2013-4-13,50,45,41,42,40,36,96,81,60,30.18,30.05,7,2,18,0.21
2013-4-14,49,44,40,43,40,38,97,89,74,30.17,30.01,7,1,12,0.13
2013-4-15,53,45,39,43,40,38,97,85,65,30.25,30.02,8,1,14,0.16
2013-4-16,55,46,37,46,41,36,97,84,65,30.46,30.25,7,1,15,0.00
2013-4-17,55,47,38,46,42,36,97,85,68,30.55,30.46,6,1,14,0.00
2013-4-18,57,51,44,48,45,42,93,81,61,30.53,30.40,6,1,14,0.00
2013-4-19,52,50,49,51,49,48,97,96,92,30.41,30.26,8,1,15,0.82
2013-4-20,56,50,45,48,46,44,97,88,70,30.42,30.34,3,0,10,0.04
2013-4-21,53,49,46,48,46,44,96,89,80,30.37,30.31,2,0,10,0.02
2013-4-22,69,53,37,46,39,32,98,66,29,30.42,30.34,7,1,20,0.00
2013-4-23,67,52,36,42,37,32,95,64,28,30.38,30.20,7,1,15,0.00
2013-4-24,79,58,40,42,36,25,92,52,15,30.25,30.04,5,1,16,0.00
2013-4-25,67,53,40,51,45,39,95,76,41,30.22,30.06,5,1,12,0.00
2013-4-26,74,56,44,54,47,43,97,76,40,30.30,30.21,5,0,10,0.00
2013-4-27,60,51,46,49,46,44,95,85,65,30.37,30.30,8,1,12,0.00
2013-4-28,60,54,50,51,49,46,96,84,65,30.34,30.21,5,1,12,0.08
2013-4-29,56,50,41,51,43,36,96,78,52,30.30,30.18,6,1,20,0.23
2013-4-30,56,46,37,42,38,35,96,76,48,30.49,30.30,6,1,17,0.01
2013-5-1,69,51,33,46,39,31,95,68,31,30.53,30.44,6,1,12,0.01
2013-5-2,78,59,41,45,41,36,93,59,23,30.44,30.29,5,1,15,0.00
2013-5-3,75,57,40,51,45,38,96,69,39,30.34,30.15,5,0,12,0.00
2013-5-4,84,62,43,52,44,34,95,62,17,30.16,29.88,8,2,20,0.00
2013-5-5,87,72,52,49,42,36,85,41,18,29.88,29.67,7,2,22,0.00
2013-5-6,66,55,45,52,49,44,95,81,61,30.00,29.86,6,1,15,0.00
2013-5-7,61,55,52,52,49,48,89,82,68,30.11,29.99,7,1,15,0.00
2013-5-8,63,55,52,52,49,48,88,81,68,30.23,30.11,6,1,12,0.00
2013-5-9,65,56,50,55,50,48,93,83,66,30.24,30.16,5,1,10,0.00
2013-5-10,63,53,50,55,50,48,95,90,74,30.30,30.21,5,0,12,0.00
2013-5-11,75,60,50,59,52,47,94,77,48,30.29,30.10,5,0,10,0.00
2013-5-12,68,59,55,57,55,53,96,87,68,30.20,30.12,3,0,12,0.05
2013-5-13,58,55,51,55,53,49,96,93,84,30.27,30.11,3,0,14,0.07
2013-5-14,64,54,47,50,46,40,97,78,46,30.27,30.18,6,1,13,0.00
2013-5-15,60,52,45,52,48,43,96,88,71,30.18,30.05,1,0,10,0.11
2013-5-16,59,55,51,54,51,49,97,88,76,30.05,29.99,5,0,12,0.06
2013-5-17,61,54,48,52,48,46,97,83,63,30.16,30.04,8,1,17,0.04
2013-5-18,58,53,48,55,51,46,96,92,82,30.30,30.14,3,0,16,0.10
2013-5-19,63,57,47,50,48,45,92,74,61,30.47,30.39,6,1,14,0.10
2013-5-20,65,53,41,51,46,40,97,80,54,30.40,30.01,7,1,13,0.00
2013-5-21,51,47,43,48,45,41,96,92,80,30.07,29.93,6,0,23,0.92
2013-5-22,51,47,44,49,46,42,97,95,93,30.06,30.00,3,0,12,1.83
2013-5-23,56,50,47,50,48,46,97,93,77,30.07,30.03,3,0,13,0.85
2013-5-24,55,50,48,51,49,47,97,94,85,30.15,30.05,3,0,14,0.22
2013-5-25,62,54,47,52,49,46,97,85,60,30.14,29.99,5,1,13,0.12
2013-5-26,59,54,51,52,51,49,96,88,73,30.11,29.98,6,1,14,0.10
2013-5-27,58,54,52,57,53,50,97,95,91,30.02,29.78,5,1,15,1.28
2013-5-28,60,54,51,53,50,48,97,88,66,30.01,29.76,6,0,12,0.35
2013-5-29,59,54,50,54,51,48,97,91,76,30.12,29.67,9,1,20,0.61
2013-5-30,49,49,49,48,48,48,96,96,96,30.12,30.12,0,0,0,0.01
2013-5-31,66,57,44,52,49,43,97,77,57,30.37,30.12,5,1,14,0.00
2013-6-1,67,56,45,56,50,44,97,80,59,30.30,30.12,6,1,13,0.00
2013-6-2,64,58,51,55,52,49,95,82,68,30.16,30.10,9,1,16,0.01
2013-6-3,69,58,48,55,51,46,95,79,60,30.16,30.10,6,1,12,0.00
2013-6-4,77,60,44,58,51,43,97,75,46,30.12,30.04,6,1,12,0.00
2013-6-5,72,60,50,60,54,48,97,82,63,30.14,30.07,8,1,14,0.00
2013-6-6,68,59,53,57,53,50,92,80,65,30.13,30.08,5,1,12,0.00
2013-6-7,70,58,47,57,51,46,96,79,48,30.21,30.12,6,1,12,0.00
2013-6-8,73,62,52,55,52,48,94,72,47,30.20,30.13,3,1,12,0.00
2013-6-9,67,58,50,52,49,46,92,73,51,30.15,30.07,5,1,21,0.00
2013-6-10,64,55,43,48,46,41,95,72,51,30.08,30.01,6,1,18,0.00
2013-6-11,61,55,48,51,49,46,94,82,62,30.21,30.07,7,1,13,0.03
2013-6-12,61,54,47,51,49,46,97,85,68,30.26,30.19,6,1,12,0.00
2013-6-13,59,55,51,55,52,49,96,90,77,30.35,30.23,3,0,12,0.44
2013-6-14,72,60,51,56,52,50,96,78,52,30.34,30.02,5,0,12,0.01
2013-6-15,62,56,47,56,52,46,97,88,80,30.10,29.97,3,0,12,0.00
2013-6-16,66,59,54,56,53,51,92,81,69,30.19,30.10,7,1,12,0.00
2013-6-17,64,58,52,56,53,50,95,86,65,30.17,30.07,5,1,16,0.00
2013-6-18,63,56,49,54,52,47,97,86,69,30.07,30.02,7,1,18,0.00
2013-6-19,63,56,51,55,52,50,96,89,71,30.17,30.01,6,1,14,0.00
2013-6-20,65,57,53,56,53,51,96,87,67,30.19,30.11,6,1,14,0.48
2013-6-21,68,59,50,56,52,49,97,80,57,30.22,30.15,6,1,13,0.00
2013-6-22,75,61,48,58,53,47,97,78,53,30.15,29.91,6,1,12,0.05
2013-6-23,66,60,56,61,58,55,97,93,82,29.91,29.69,2,0,12,0.27
2013-6-24,62,58,55,57,56,54,97,93,81,29.76,29.70,1,0,12,0.30
2013-6-25,64,59,56,60,57,54,97,93,78,29.89,29.72,5,0,14,0.49
2013-6-26,70,63,58,61,59,57,97,88,70,30.07,29.89,6,0,13,0.12
2013-6-27,73,65,60,64,61,59,96,87,73,30.21,30.03,6,1,12,0.01
2013-6-28,78,67,59,66,61,57,97,82,56,30.20,30.12,6,1,12,0.00
2013-6-29,84,70,56,65,60,55,96,74,46,30.16,30.02,5,0,12,0.00
2013-6-30,74,66,57,65,60,56,97,84,65,30.02,29.97,3,1,10,0.00
2013-7-1,74,66,60,66,61,58,95,85,72,30.11,29.99,6,1,12,0.00
2013-7-2,76,65,60,64,59,57,93,82,61,30.14,30.09,3,0,12,0.00
2013-7-3,74,63,53,58,55,52,97,76,51,30.18,30.14,8,1,12,0.00
2013-7-4,70,61,51,56,53,49,96,75,58,30.19,30.11,7,1,18,0.00
2013-7-5,71,62,52,57,53,50,93,75,57,30.13,30.03,5,1,15,0.00
2013-7-6,71,59,48,58,53,46,96,81,60,30.04,29.95,5,1,12,0.00
2013-7-7,70,62,57,58,55,53,88,78,63,30.04,29.98,7,1,13,0.00
2013-7-8,75,61,51,59,54,49,95,80,57,30.12,30.04,5,0,10,0.00
2013-7-9,75,61,52,62,56,50,96,84,63,30.13,30.08,6,1,12,0.00
2013-7-10,71,60,52,57,53,48,95,77,59,30.13,30.04,6,1,15,0.00
2013-7-11,70,59,47,53,49,45,95,72,50,30.12,30.04,6,1,18,0.00
2013-7-12,69,57,45,52,48,43,96,74,49,30.15,30.05,5,1,16,0.00
2013-7-13,74,60,44,55,50,43,97,74,48,30.20,30.08,7,0,15,0.00
2013-7-14,77,61,46,59,50,45,97,72,43,30.14,30.04,5,0,12,0.00
2013-7-15,78,60,46,59,52,44,96,76,46,30.07,29.85,5,0,10,0.00
2013-7-16,67,58,52,58,54,50,96,89,74,30.08,29.83,3,0,12,0.00
2013-7-17,68,60,53,57,54,50,94,82,64,30.24,30.08,6,0,12,0.00
2013-7-18,73,59,47,58,52,46,97,80,55,30.25,30.16,2,0,10,0.00
2013-7-19,71,60,54,58,54,51,91,81,63,30.20,30.11,5,0,10,0.00
2013-7-20,70,59,56,58,54,52,90,83,66,30.14,30.03,5,0,10,0.00
2013-7-21,74,61,54,61,55,52,92,81,61,30.05,29.97,6,0,12,0.00
2013-7-22,75,63,55,61,56,52,92,80,59,30.08,30.00,3,0,10,0.00
2013-7-23,74,59,51,62,54,50,96,84,59,30.09,30.02,6,1,12,0.00
2013-7-24,72,59,51,60,53,49,95,83,64,30.11,30.05,5,1,10,0.00
2013-7-25,77,62,50,60,53,49,95,77,47,30.14,30.07,5,0,9,0.00
2013-7-26,75,61,47,58,52,46,100,74,49,30.23,30.11,5,0,14,0.00
2013-7-27,72,60,49,56,52,47,96,77,55,30.24,30.12,7,1,15,0.00
2013-7-28,69,62,55,56,54,51,85,73,61,30.12,30.05,6,1,14,0.00
2013-7-29,67,65,57,55,54,53,86,68,63,30.12,30.05,6,2,12,0.00
2013-7-30,68,60,55,59,55,52,92,84,70,30.20,30.12,5,0,12,0.00
2013-7-31,63,59,57,57,56,55,95,88,80,30.19,30.13,2,0,10,0.00
2013-8-1,63,59,56,58,56,55,96,91,80,30.18,30.12,3,0,10,0.09
2013-8-2,67,60,56,59,57,54,96,89,76,30.19,30.14,5,0,7,0.05
2013-8-3,75,62,52,62,56,51,97,84,63,30.15,30.04,7,0,10,0.00
2013-8-4,70,60,55,61,56,54,96,87,71,30.08,30.01,5,0,12,0.00
2013-8-5,71,59,53,60,54,51,96,86,66,30.09,30.00,3,0,10,0.00
2013-8-6,75,60,52,60,54,50,96,82,54,30.05,29.98,5,0,9,0.00
2013-8-7,59,55,52,55,53,51,96,93,85,30.13,30.04,2,0,7,0.00
2013-8-8,70,60,54,63,57,53,97,88,74,30.11,29.99,3,0,10,0.02
2013-8-9,74,60,55,62,56,53,95,87,65,30.02,29.93,6,0,10,0.00
2013-8-10,63,59,56,58,56,55,95,91,81,30.12,29.99,0,0,0,0.04
2013-8-11,63,59,56,58,57,54,96,91,83,30.12,30.07,0,0,0,0.00
2013-8-12,70,61,53,60,56,51,97,83,59,30.14,30.08,0,0,0,0.00
2013-8-13,77,61,46,59,54,45,97,79,49,30.14,29.99,0,0,0,0.00
2013-8-14,75,63,54,64,58,52,96,85,54,30.03,29.97,3,0,12,0.14
2013-8-15,70,64,62,66,62,61,97,95,88,30.03,29.96,1,0,7,0.09
2013-8-16,72,65,57,65,60,55,98,86,61,30.10,30.00,5,1,12,0.00
2013-8-17,69,62,55,62,59,54,97,90,77,30.15,30.09,6,0,12,0.02
2013-8-18,77,65,56,63,59,55,97,82,60,30.17,30.10,7,1,14,0.00
2013-8-19,76,64,53,62,57,52,97,81,60,30.17,30.11,5,1,17,0.00
2013-8-20,79,63,48,58,53,47,97,74,46,30.16,30.02,5,0,12,0.01
2013-8-21,83,63,49,59,54,48,97,75,44,30.04,29.91,5,0,9,0.00
2013-8-22,66,58,53,58,55,51,95,90,76,29.98,29.92,3,0,9,0.00
2013-8-23,70,62,58,60,58,56,96,88,68,30.00,29.96,5,0,12,0.01
2013-8-24,71,63,57,60,58,55,95,83,61,29.96,29.92,7,1,14,0.00
2013-8-25,70,59,53,60,55,52,97,88,68,29.98,29.93,2,0,7,0.02
2013-8-26,73,60,53,60,55,52,97,87,51,29.99,29.94,2,0,13,0.34
2013-8-27,73,64,60,65,61,59,98,91,71,29.98,29.88,5,0,12,0.10
2013-8-28,71,65,62,64,62,61,97,90,77,29.94,29.87,5,0,10,0.03
2013-8-29,69,64,61,66,63,60,98,96,90,30.11,29.88,6,0,17,0.43
2013-8-30,78,67,58,66,61,56,97,83,53,30.16,30.07,5,0,12,0.01
2013-8-31,76,61,53,64,57,52,98,87,62,30.07,29.94,7,1,10,0.00
2013-9-1,76,66,56,63,58,54,96,79,51,29.97,29.88,5,1,12,0.01
2013-9-2,74,65,56,64,60,54,97,83,57,29.98,29.90,5,0,12,0.08
2013-9-3,73,62,53,62,57,52,96,84,65,30.05,29.97,3,0,12,0.01
2013-9-4,71,64,59,62,59,58,96,87,67,30.09,30.03,3,0,10,0.00
2013-9-5,64,61,59,61,59,58,97,95,89,30.13,30.05,2,0,7,1.61
2013-9-6,68,63,58,62,60,57,97,90,74,30.20,30.12,3,0,10,0.06
2013-9-7,76,65,58,65,60,57,97,85,65,30.14,30.00,2,0,10,0.00
2013-9-8,82,67,58,66,61,57,97,83,54,30.09,30.02,3,0,10,0.00
2013-9-9,78,66,57,66,60,56,98,85,62,30.06,29.95,3,0,9,0.00
2013-9-10,86,69,55,67,61,54,98,79,53,29.95,29.78,3,0,7,0.01
2013-9-11,69,62,57,61,58,55,95,88,74,30.03,29.83,3,0,12,0.00
2013-9-12,68,61,57,60,58,56,95,90,77,30.04,30.01,2,0,9,0.00
2013-9-13,66,61,57,61,59,56,97,92,84,30.04,29.90,2,0,5,0.01
2013-9-14,68,62,59,63,59,58,96,93,84,29.90,29.80,2,0,6,0.02
2013-9-15,62,60,59,61,59,58,97,95,88,29.95,29.79,2,0,12,0.12
2013-9-16,69,62,58,62,59,57,97,90,76,30.03,29.94,3,0,10,0.00
2013-9-17,67,61,56,57,56,54,96,86,63,30.07,29.91,5,0,12,0.02
2013-9-18,71,60,52,60,55,51,98,86,61,30.14,30.03,3,0,12,0.10
2013-9-19,74,60,49,57,52,48,96,79,54,30.03,29.83,2,0,12,0.01
2013-9-20,63,57,50,60,55,48,97,94,82,29.83,29.70,2,0,13,0.20
2013-9-21,64,58,54,58,56,54,98,91,77,29.84,29.71,2,0,10,0.02
2013-9-22,60,58,56,59,56,54,97,94,85,29.91,29.72,3,0,20,2.27
2013-9-23,62,58,55,60,56,54,97,94,87,30.05,29.91,2,0,12,5.17
2013-9-24,57,54,50,55,52,49,97,96,90,30.03,29.92,5,0,12,0.00
2013-9-25,66,56,47,57,52,47,98,87,67,30.10,29.92,1,0,12,0.03
2013-9-26,64,61,58,54,52,49,76,72,69,30.23,30.10,0,0,0,0.00
2013-9-27,61,59,58,52,50,49,78,73,72,30.23,29.98,0,0,0,0.00
2013-9-28,62,61,59,55,54,51,80,77,74,29.97,29.58,0,0,0,0.00
2013-9-29,64,62,61,57,54,53,79,77,75,29.74,29.47,0,0,0,0.00
2013-9-30,60,56,52,55,51,49,93,86,77,30.05,29.97,8,1,20,0.00
2013-10-1,60,53,44,53,48,43,96,86,62,30.24,30.02,5,0,14,0.00
2013-10-2,58,48,41,52,46,40,98,94,81,30.25,30.13,2,0,10,0.00
2013-10-3,63,50,42,51,46,41,98,85,56,30.45,30.25,2,0,7,0.00
2013-10-4,71,54,41,54,47,40,97,81,47,30.46,30.35,3,0,9,0.00
2013-10-5,77,58,44,51,46,40,96,70,27,30.35,30.14,5,0,13,0.00
2013-10-6,72,56,46,55,49,43,95,80,36,30.14,30.04,3,0,20,0.00
2013-10-7,61,55,51,55,52,49,97,88,70,30.22,30.04,5,0,16,0.00
2013-10-8,55,51,45,53,50,44,97,95,89,30.22,30.07,2,0,12,0.00
2013-10-9,63,50,41,51,45,40,98,85,58,30.12,30.02,3,0,9,0.00
2013-10-10,60,50,43,54,48,42,97,92,77,30.15,30.00,2,0,10,0.00
2013-10-11,59,49,44,51,46,43,98,90,67,30.19,30.15,3,0,7,0.00
2013-10-12,58,49,43,53,47,42,98,93,80,30.16,30.11,1,0,6,0.00
2013-10-13,64,54,43,53,48,42,98,83,62,30.32,30.25,3,0,7,0.00
2013-10-14,69,52,39,51,45,38,98,81,46,30.37,30.29,2,0,6,0.00
2013-10-15,71,54,42,47,44,40,96,71,34,30.32,30.16,5,0,10,0.00
2013-10-16,68,51,40,53,46,38,98,85,50,30.19,30.14,3,0,7,0.00
2013-10-17,69,52,40,56,48,39,98,87,59,30.24,30.16,3,0,6,0.00
2013-10-18,75,55,42,50,45,41,97,75,34,30.17,30.09,3,0,12,0.00
2013-10-19,70,53,40,54,47,39,97,84,51,30.18,30.12,0,0,1,0.00
2013-10-20,65,55,43,57,51,42,98,86,73,30.17,30.12,0,0,0,0.00
2013-10-21,65,65,65,57,57,57,75,75,75,30.12,30.12,0,0,0,0.00
2013-10-22,65,65,65,57,57,57,75,75,75,30.12,30.12,0,0,0,0.00
2013-10-23,65,65,65,57,57,57,75,75,75,30.12,30.12,0,0,0,0.00
2013-10-24,65,65,65,57,57,57,75,75,75,30.12,30.12,0,0,0,0.00
2013-10-25,65,65,65,57,57,57,75,75,75,30.12,30.12,0,0,0,0.00
2013-10-26,65,65,65,57,57,57,75,75,75,30.12,30.12,0,0,0,0.00
2013-10-27,65,65,65,57,57,57,75,75,75,30.12,30.12,0,0,0,0.00
2013-10-28,65,65,65,57,57,57,75,75,75,30.12,30.12,0,0,0,0.00
2013-10-29,65,65,65,57,57,57,75,75,75,30.12,30.12,0,0,0,0.00
2013-10-30,65,65,65,57,57,57,75,75,75,30.12,30.12,0,0,0,0.00
2013-10-31,65,65,65,57,57,57,75,75,75,30.12,30.12,0,0,0,0.00
2013-11-1,65,65,65,57,57,57,75,75,75,30.12,30.12,0,0,0,0.00
2013-11-2,65,65,65,57,57,57,75,75,75,30.12,30.12,0,0,0,0.00
2013-11-3,65,65,65,57,57,57,75,75,75,30.12,30.12,0,0,0,0.00
2013-11-4,65,65,65,57,57,57,75,75,75,30.12,30.12,0,0,0,0.00
2013-11-5,54,54,54,54,53,53,98,98,97,30.31,30.28,0,0,0,0.02
2013-11-6,59,56,54,58,55,52,98,97,88,30.33,30.15,0,0,2,0.14
2013-11-7,55,52,49,54,50,46,98,91,80,30.23,30.00,5,0,20,0.58
2013-11-8,53,49,44,50,46,40,91,89,87,30.27,30.17,1,0,3,0.11
2013-11-9,53,48,42,49,44,38,91,88,85,30.17,30.08,3,0,13,0.01
2013-11-10,64,52,47,54,48,44,90,86,63,30.13,30.07,5,0,12,0.00
2013-11-11,61,54,47,52,48,44,91,80,71,30.14,30.03,6,1,17,0.00
2013-11-12,58,54,50,55,50,47,90,88,86,30.50,30.12,2,0,12,0.33
2013-11-13,54,50,45,52,47,42,91,89,87,30.53,30.38,2,0,6,0.00
2013-11-14,51,47,44,49,44,41,91,90,88,30.37,30.19,0,0,3,0.22
2013-11-15,50,46,41,47,43,38,90,89,88,30.19,29.72,3,0,10,0.37
2013-11-16,51,48,46,48,45,44,92,90,80,29.96,29.71,2,0,10,0.23
2013-11-17,54,50,47,50,47,44,92,90,87,30.07,29.96,2,0,9,0.20
2013-11-18,55,52,50,52,49,47,91,90,89,30.05,29.79,6,1,21,0.66
2013-11-19,55,49,38,51,46,33,91,89,80,30.09,29.77,3,1,13,0.36
2013-11-20,40,32,30,36,30,28,95,92,84,30.42,30.09,2,0,9,0.01
2013-11-21,50,35,27,28,24,16,94,69,28,30.58,30.42,3,0,13,0.00
2013-11-22,53,48,41,23,20,16,36,33,27,30.54,30.35,10,3,23,0.00
2013-11-23,58,50,45,28,23,18,39,34,29,30.34,30.15,7,2,24,0.00
2013-11-24,61,48,39,38,30,22,84,52,36,30.30,30.15,5,0,18,0.00
2013-11-25,58,43,34,43,36,31,90,78,46,30.36,30.30,1,0,6,0.00
2013-11-26,53,46,38,43,38,34,90,76,61,30.31,30.09,2,0,13,0.00
2013-11-27,58,51,45,39,37,35,72,59,47,30.08,29.96,3,0,15,0.00
2013-11-28,61,48,38,41,36,33,91,65,44,30.26,30.03,1,0,12,0.00
2013-11-29,52,43,33,46,40,32,95,89,75,30.42,30.25,2,0,9,0.01
2013-11-30,55,48,43,50,46,42,97,92,81,30.46,30.33,1,0,4,0.04
2013-12-1,54,53,51,53,52,50,97,97,97,30.33,30.08,9,2,22,1.46
2013-12-2,53,44,37,52,41,36,97,92,70,30.15,30.07,6,1,22,1.01
2013-12-3,43,36,29,38,33,25,98,87,69,30.33,30.13,2,0,12,0.03
2013-12-4,40,32,25,26,22,18,93,70,43,30.39,30.33,2,0,10,0.00
2013-12-5,32,32,31,23,20,20,72,63,61,30.34,30.17,1,0,14,0.00
2013-12-6,31,29,25,26,24,21,92,83,66,30.17,29.97,7,1,20,0.00
2013-12-7,30,23,16,21,16,13,92,76,55,30.50,30.13,7,0,12,0.05
2013-12-8,34,26,16,23,16,10,86,66,48,30.64,30.48,2,0,12,0.04
2013-12-9,41,32,23,31,24,16,87,74,61,30.65,30.58,1,0,5,0.02
2013-12-10,45,38,32,35,32,29,92,81,67,30.60,30.43,3,0,8,0.01
2013-12-11,49,40,34,36,32,30,88,75,60,30.43,30.23,3,0,13,0.00
2013-12-12,46,37,30,46,36,28,97,93,88,30.27,30.16,1,0,3,0.40
2013-12-13,50,46,41,50,46,40,98,97,96,30.49,30.27,1,0,5,0.12
2013-12-14,48,44,40,46,42,39,98,96,92,30.52,30.42,1,0,4,0.00
2013-12-15,51,47,43,50,46,43,98,98,97,30.53,30.49,0,0,3,0.05
2013-12-16,55,48,43,48,44,39,98,84,68,30.52,30.26,5,0,13,0.00
2013-12-17,50,42,35,44,39,34,96,91,78,30.29,30.23,1,0,7,0.00
2013-12-18,48,43,36,46,41,34,98,93,84,30.25,30.12,3,0,13,0.04
2013-12-19,42,35,29,36,32,28,97,91,76,30.38,30.21,1,0,6,0.01
2013-12-20,50,41,33,50,40,32,98,95,91,30.30,30.01,5,0,12,0.64
2013-12-21,50,48,46,49,47,45,98,96,91,30.34,30.08,5,0,12,0.15
2013-12-22,51,49,46,50,49,46,98,97,96,30.43,30.33,1,0,4,0.07
2013-12-23,51,51,51,50,50,50,96,96,96,30.42,30.42,0,0,0,0.00
2013-12-24,51,51,51,50,50,50,96,96,96,30.42,30.42,0,0,0,0.00
2013-12-25,51,51,51,50,50,50,96,96,96,30.42,30.42,0,0,0,0.00
2013-12-26,51,51,51,50,50,50,96,96,96,30.42,30.42,0,0,0,0.00
2013-12-27,53,50,46,50,47,42,96,90,67,30.45,30.27,3,0,6,0.00
2013-12-28,48,43,40,44,40,36,96,88,75,30.56,30.45,2,0,10,0.00
2013-12-29,52,42,34,41,36,32,96,80,53,30.51,30.31,5,0,12,0.00
2013-12-30,52,45,39,43,39,34,95,80,69,30.32,30.22,0,0,7,0.00
2013-12-31,53,43,38,47,41,37,97,92,79,30.40,30.29,2,0,4,0.00
2014-1-1,54,46,39,46,42,38,97,85,72,30.39,30.27,5,0,12,0.01
2014-1-2,60,49,42,46,43,39,96,81,59,30.29,30.15,1,0,5,0.10